Time;durP1;ratioP1;P1;durP2;ratioP2;P2;SDS_P1;SDS_P2;PMS_P1;PMS_P2;Temp;Humidity;BMP_temperature;BMP_pressure;BME280_temperature;BME280_humidity;BME280_pressure;Samples;Min_cycle;Max_cycle;Signal;HPM_P1;HPM_P2
2024/02/06 02:21:45;;;;;;;;;;;;;;;7.69;75.58;99478.30;106459;1253;68401;-88
2024/02/06 02:24:25;;;;;;;;;;;;;;;7.67;76.32;99478.58;106471;1253;71513;-87
2024/02/06 02:27:05;;;;;;;;;;;;;;;7.69;75.43;99477.54;106398;1258;61352;-88
2024/02/06 02:29:45;;;;;;;;;;;;;;;7.61;74.26;99472.20;106790;1252;61324;-89
2024/02/06 02:32:24;;;;;;;;;;;;;;;7.50;75.59;99480.17;106515;1253;74653;-88
2024/02/06 02:35:04;;;;;;;;;;;;;;;7.53;75.50;99486.34;106559;1253;69360;-86
2024/02/06 02:37:44;;;;;;;;;;;;;;;7.61;75.76;99494.77;106508;1253;71859;-87
2024/02/06 02:40:23;;;;;;;;;;;;;;;7.78;75.96;99493.13;106747;1253;61203;-87
2024/02/06 02:43:04;;;;;;;;;;;;;;;7.87;75.36;99496.05;106992;1257;61109;-88
2024/02/06 02:45:44;;;;;;;;;;;;;;;7.85;75.70;99499.05;106449;1253;74675;-89
2024/02/06 02:48:23;;;;;;;;;;;;;;;7.84;74.72;99503.25;106550;1256;67469;-87
2024/02/06 02:51:03;;;;;;;;;;;;;;;7.86;75.84;99497.85;106722;1258;71434;-88
2024/02/06 02:53:43;;;;;;;;;;;;;;;7.93;75.21;99496.22;106503;1254;61314;-87
2024/02/06 02:56:23;;;;;;;;;;;;;;;8.00;75.51;99504.31;106595;1253;61267;-86
2024/02/06 02:59:03;;;;;;;;;;;;;;;8.02;75.15;99507.56;106620;1253;73421;-88
2024/02/06 03:01:43;;;;;;;;;;;;;;;7.88;75.91;99516.27;107215;1253;68388;-88
2024/02/06 03:04:23;;;;;;;;;;;;;;;7.86;75.22;99521.46;106965;1258;71008;-87
2024/02/06 03:07:03;;;;;;;;;;;;;;;7.89;75.37;99530.46;106714;1253;61340;-88
2024/02/06 03:09:43;;;;;;;;;;;;;;;7.93;74.03;99537.39;106506;1252;61348;-88
2024/02/06 03:12:15;;;;;;;;;;;;;;;7.93;74.31;99542.73;106769;1253;74671;-87
2024/02/06 03:14:48;;;;;;;;;;;;;;;7.99;74.93;99547.24;106580;1253;67733;-88
2024/02/06 03:17:22;;;;;;;;;;;;;;;8.00;74.99;99542.95;106563;1253;71370;-87
2024/02/06 03:19:56;;;;;;;;;;;;;;;7.92;74.38;99534.63;106344;1253;61264;-87
2024/02/06 03:22:26;;;;;;;;;;;;;;;7.92;74.71;99527.66;106437;1254;61986;-88
2024/02/06 03:25:00;;;;;;;;;;;;;;;7.99;74.19;99527.39;106518;1252;75289;-88
2024/02/06 03:27:34;;;;;;;;;;;;;;;8.07;75.45;99531.15;106569;1256;67658;-87
2024/02/06 03:30:04;;;;;;;;;;;;;;;8.11;75.56;99531.42;106613;1252;72351;-87
2024/02/06 03:32:37;;;;;;;;;;;;;;;8.14;74.92;99533.58;106557;1256;61250;-87
2024/02/06 03:35:12;;;;;;;;;;;;;;;8.11;72.56;99534.69;106599;1252;61292;-87
2024/02/06 03:37:45;;;;;;;;;;;;;;;8.16;72.98;99539.77;107005;1253;74660;-89
2024/02/06 03:40:13;;;;;;;;;;;;;;;8.23;73.44;99533.66;106412;1257;69012;-89
2024/02/06 03:42:47;;;;;;;;;;;;;;;8.29;73.67;99531.75;106460;1257;72674;-88
2024/02/06 03:45:21;;;;;;;;;;;;;;;8.34;73.30;99540.16;106379;1253;61404;-89
2024/02/06 03:47:54;;;;;;;;;;;;;;;8.37;72.22;99538.70;106525;1258;61224;-89
2024/02/06 03:50:22;;;;;;;;;;;;;;;8.34;73.19;99542.77;106311;1258;74721;-89
2024/02/06 03:52:56;;;;;;;;;;;;;;;8.24;72.91;99539.59;106492;1253;66482;-87
2024/02/06 03:55:36;;;;;;;;;;;;;;;8.21;72.26;99532.88;106507;1253;71232;-90
2024/02/06 03:58:04;;;;;;;;;;;;;;;8.25;73.43;99539.41;106427;1256;61266;-87
2024/02/06 04:00:38;;;;;;;;;;;;;;;8.24;73.88;99538.61;106827;1257;61263;-88
2024/02/06 04:03:12;;;;;;;;;;;;;;;8.30;72.88;99536.49;106705;1253;74609;-90
2024/02/06 04:05:46;;;;;;;;;;;;;;;8.25;73.17;99528.41;106326;1256;68430;-88
2024/02/06 04:08:13;;;;;;;;;;;;;;;8.21;74.06;99525.89;106590;1253;72676;-89
2024/02/06 04:10:48;;;;;;;;;;;;;;;8.31;73.53;99522.76;106529;1257;61268;-87
2024/02/06 04:13:22;;;;;;;;;;;;;;;8.41;71.63;99522.95;106396;1253;61282;-89
2024/02/06 04:15:56;;;;;;;;;;;;;;;8.40;72.42;99522.59;106653;1259;74656;-89
2024/02/06 04:18:24;;;;;;;;;;;;;;;8.42;71.76;99519.73;106583;1254;68762;-89
2024/02/06 04:20:58;;;;;;;;;;;;;;;8.36;72.19;99520.27;106258;1254;71100;-87
2024/02/06 04:23:38;;;;;;;;;;;;;;;8.36;71.92;99523.58;106605;1255;61323;-88
2024/02/06 04:26:05;;;;;;;;;;;;;;;8.41;70.88;99520.30;106544;1254;61332;-88
2024/02/06 04:28:38;;;;;;;;;;;;;;;8.48;70.35;99522.29;106430;1252;75156;-88
2024/02/06 04:31:11;;;;;;;;;;;;;;;8.47;69.58;99531.56;106481;1253;68381;-89
2024/02/06 04:33:46;;;;;;;;;;;;;;;8.47;69.26;99539.30;106756;1253;72751;-87
2024/02/06 04:36:15;;;;;;;;;;;;;;;8.38;70.71;99538.65;106432;1258;61366;-89
2024/02/06 04:38:49;;;;;;;;;;;;;;;8.41;70.94;99540.21;106586;1253;61347;-89
2024/02/06 04:41:29;;;;;;;;;;;;;;;8.41;70.42;99538.30;106488;1256;74934;-89
2024/02/06 04:44:04;;;;;;;;;;;;;;;8.26;70.31;99538.42;106926;1257;67118;-88
2024/02/06 04:46:32;;;;;;;;;;;;;;;8.46;69.84;99545.70;106625;1253;71081;-88
2024/02/06 04:49:05;;;;;;;;;;;;;;;8.54;68.48;99545.11;106403;1255;61219;-89
2024/02/06 04:51:45;;;;;;;;;;;;;;;8.50;69.22;99545.30;106345;1253;61315;-89
2024/02/06 04:54:13;;;;;;;;;;;;;;;8.53;68.80;99539.82;108178;1254;75141;-88
2024/02/06 04:56:44;;;;;;;;;;;;;;;8.54;68.95;99534.27;109358;1253;67163;-88
2024/02/06 04:59:23;;;;;;;;;;;;;;;8.59;68.02;99540.97;109364;1253;72706;-87
2024/02/06 05:02:03;;;;;;;;;;;;;;;8.66;67.63;99543.52;107382;1254;61707;-88
2024/02/06 05:04:31;;;;;;;;;;;;;;;8.66;66.79;99538.83;106656;1254;61349;-89
2024/02/06 05:07:11;;;;;;;;;;;;;;;8.63;67.78;99537.17;106595;1256;73672;-87
2024/02/06 05:09:51;;;;;;;;;;;;;;;8.62;68.48;99529.89;106438;1254;68702;-87
2024/02/06 05:12:31;;;;;;;;;;;;;;;8.54;68.64;99536.72;107008;1253;72486;-87
2024/02/06 05:14:59;;;;;;;;;;;;;;;8.38;69.06;99537.61;106399;1256;61363;-88
2024/02/06 05:17:40;;;;;;;;;;;;;;;8.29;70.68;99539.27;106695;1256;61170;-87
2024/02/06 05:20:21;;;;;;;;;;;;;;;8.32;71.48;99545.07;106554;1259;77056;-88
2024/02/06 05:23:01;;;;;;;;;;;;;;;8.39;71.28;99551.44;106651;1256;68501;-88
2024/02/06 05:25:28;;;;;;;;;;;;;;;8.41;71.69;99544.23;106566;1260;70704;-88
2024/02/06 05:28:08;;;;;;;;;;;;;;;8.45;71.92;99548.84;106709;1257;61388;-88
2024/02/06 05:30:45;;;;;;;;;;;;;;;8.50;71.86;99553.59;106535;1253;61949;-88
2024/02/06 05:33:19;;;;;;;;;;;;;;;8.50;72.03;99559.42;106607;1259;73432;-88
2024/02/06 05:35:48;;;;;;;;;;;;;;;8.47;71.30;99562.05;106409;1255;67327;-86
2024/02/06 05:38:21;;;;;;;;;;;;;;;8.42;71.18;99565.18;106662;1256;72726;-88
2024/02/06 05:40:55;;;;;;;;;;;;;;;8.50;70.87;99570.04;106498;1254;61275;-87
2024/02/06 05:43:29;;;;;;;;;;;;;;;8.59;70.70;99571.96;106211;1258;61449;-87
2024/02/06 05:45:57;;;;;;;;;;;;;;;8.57;70.19;99573.66;106534;1251;73980;-87
2024/02/06 05:48:37;;;;;;;;;;;;;;;8.50;71.03;99572.27;106626;1259;66953;-88
2024/02/06 05:51:19;;;;;;;;;;;;;;;8.47;71.43;99566.08;106842;1253;72759;-87
2024/02/06 05:53:52;;;;;;;;;;;;;;;8.41;69.66;99570.92;106450;1257;61288;-87
2024/02/06 05:56:26;;;;;;;;;;;;;;;8.41;66.83;99571.63;106474;1258;61173;-86
2024/02/06 05:59:06;;;;;;;;;;;;;;;8.44;67.16;99572.85;106414;1253;73343;-88
2024/02/06 06:01:46;;;;;;;;;;;;;;;8.32;65.85;99580.94;106474;1253;67136;-88
2024/02/06 06:04:20;;;;;;;;;;;;;;;8.32;65.82;99587.64;106565;1257;70534;-88
2024/02/06 06:07:00;;;;;;;;;;;;;;;8.41;66.91;99587.38;106683;1254;61326;-88
2024/02/06 06:09:40;;;;;;;;;;;;;;;8.47;65.60;99585.97;106520;1255;61276;-87
2024/02/06 06:12:20;;;;;;;;;;;;;;;8.40;65.57;99579.09;106332;1255;74633;-88
2024/02/06 06:15:00;;;;;;;;;;;;;;;8.44;67.01;99572.86;106611;1257;68888;-88
2024/02/06 06:17:40;;;;;;;;;;;;;;;8.47;65.86;99567.49;106583;1256;72534;-89
2024/02/06 06:20:21;;;;;;;;;;;;;;;8.45;66.81;99570.95;106475;1259;61195;-90
2024/02/06 06:23:01;;;;;;;;;;;;;;;8.42;67.09;99566.34;106797;1252;61334;-89
2024/02/06 06:25:41;;;;;;;;;;;;;;;8.38;69.82;99560.23;107252;1254;73212;-89
2024/02/06 06:28:21;;;;;;;;;;;;;;;8.48;69.94;99559.30;106785;1256;67121;-89
2024/02/06 06:30:55;;;;;;;;;;;;;;;8.63;69.40;99567.13;106737;1256;71375;-88
2024/02/06 06:33:28;;;;;;;;;;;;;;;8.63;69.37;99572.58;107109;1253;61400;-89
2024/02/06 06:36:09;;;;;;;;;;;;;;;8.55;67.72;99574.48;106577;1254;61432;-89
2024/02/06 06:38:48;;;;;;;;;;;;;;;8.60;68.68;99574.78;106463;1253;74681;-89
2024/02/06 06:41:28;;;;;;;;;;;;;;;8.75;67.38;99570.38;106515;1256;68769;-89
2024/02/06 06:44:02;;;;;;;;;;;;;;;8.61;69.57;99564.58;106387;1254;72015;-89
2024/02/06 06:46:36;;;;;;;;;;;;;;;8.59;70.17;99565.80;106764;1255;61283;-88
2024/02/06 06:49:15;;;;;;;;;;;;;;;8.77;69.91;99573.73;106428;1260;61166;-88
2024/02/06 06:51:55;;;;;;;;;;;;;;;8.86;69.46;99574.30;106533;1251;73364;-89
2024/02/06 06:54:35;;;;;;;;;;;;;;;8.78;70.83;99572.63;106520;1257;68673;-90
2024/02/06 06:57:15;;;;;;;;;;;;;;;8.81;71.19;99573.81;107051;1254;72704;-89
2024/02/06 06:59:55;;;;;;;;;;;;;;;8.82;70.44;99576.24;106845;1256;61438;-88
2024/02/06 07:02:34;;;;;;;;;;;;;;;8.94;69.20;99582.23;106468;1258;60383;-88
2024/02/06 07:05:14;;;;;;;;;;;;;;;9.00;70.01;99585.52;106649;1256;80128;-88
2024/02/06 07:07:55;;;;;;;;;;;;;;;9.03;71.88;99577.54;106501;1253;69611;-89
2024/02/06 07:10:34;;;;;;;;;;;;;;;9.11;71.62;99574.01;106338;1257;74691;-89
2024/02/06 07:13:15;;;;;;;;;;;;;;;9.21;71.92;99580.48;106553;1254;61405;-86
2024/02/06 07:15:55;;;;;;;;;;;;;;;9.31;71.83;99592.57;106468;1256;61265;-88
2024/02/06 07:18:35;;;;;;;;;;;;;;;9.26;69.95;99590.45;106608;1257;74576;-88
2024/02/06 07:21:15;;;;;;;;;;;;;;;9.31;68.31;99584.89;106689;1254;68548;-89
2024/02/06 07:23:55;;;;;;;;;;;;;;;9.33;69.86;99581.27;106392;1257;72796;-90
2024/02/06 07:26:28;;;;;;;;;;;;;;;9.36;70.31;99588.05;106435;1254;61356;-88
2024/02/06 07:29:08;;;;;;;;;;;;;;;9.46;70.35;99589.09;106596;1254;61219;-87
2024/02/06 07:31:48;;;;;;;;;;;;;;;9.55;69.38;99578.58;106727;1256;76609;-87
2024/02/06 07:34:22;;;;;;;;;;;;;;;9.65;69.52;99584.11;106437;1260;68676;-88
2024/02/06 07:36:56;;;;;;;;;;;;;;;9.67;69.65;99585.55;106449;1257;71379;-87
2024/02/06 07:39:36;;;;;;;;;;;;;;;9.73;68.61;99588.03;106370;1257;61504;-87
2024/02/06 07:42:16;;;;;;;;;;;;;;;9.68;69.29;99588.26;106582;1254;61257;-88
2024/02/06 07:44:44;;;;;;;;;;;;;;;9.68;69.46;99576.33;106421;1257;74651;-88
2024/02/06 07:47:24;;;;;;;;;;;;;;;9.69;70.53;99582.16;106495;1254;68663;-87
2024/02/06 07:50:05;;;;;;;;;;;;;;;9.68;70.53;99578.73;106502;1258;73824;-88
2024/02/06 07:52:44;;;;;;;;;;;;;;;9.60;71.37;99581.23;107372;1255;61179;-87
2024/02/06 07:55:13;;;;;;;;;;;;;;;9.62;71.51;99583.45;106455;1257;61365;-88
2024/02/06 07:57:52;;;;;;;;;;;;;;;9.74;71.26;99579.19;106582;1253;74594;-88
2024/02/06 08:00:32;;;;;;;;;;;;;;;9.73;71.95;99585.70;106515;1257;68440;-87
2024/02/06 08:03:06;;;;;;;;;;;;;;;9.67;72.76;99591.82;106570;1254;72675;-91
2024/02/06 08:05:40;;;;;;;;;;;;;;;9.76;71.84;99596.71;107357;1254;61372;-92
2024/02/06 08:08:21;;;;;;;;;;;;;;;9.81;71.74;99600.09;106546;1254;61146;-91
2024/02/06 08:11:01;;;;;;;;;;;;;;;9.88;72.42;99604.80;106726;1254;74935;-92
2024/02/06 08:13:35;;;;;;;;;;;;;;;10.03;73.74;99595.51;106578;1256;68415;-91
2024/02/06 08:16:10;;;;;;;;;;;;;;;9.98;75.27;99598.27;106501;1254;71142;-92
2024/02/06 08:18:50;;;;;;;;;;;;;;;10.00;75.32;99597.91;106439;1255;61163;-91
2024/02/06 08:21:30;;;;;;;;;;;;;;;9.99;76.55;99599.06;106700;1254;61167;-89
2024/02/06 08:24:04;;;;;;;;;;;;;;;10.04;77.13;99594.35;106509;1261;74660;-88
2024/02/06 08:26:38;;;;;;;;;;;;;;;10.05;77.96;99593.51;106526;1254;68552;-88
2024/02/06 08:29:18;;;;;;;;;;;;;;;10.16;78.51;99593.55;107028;1256;73566;-90
2024/02/06 08:31:58;;;;;;;;;;;;;;;10.17;79.44;99593.05;106503;1256;61338;-90
2024/02/06 08:34:32;;;;;;;;;;;;;;;10.10;79.89;99600.04;106700;1257;61264;-89
2024/02/06 08:37:06;;;;;;;;;;;;;;;10.04;79.53;99599.31;106658;1252;73367;-88
2024/02/06 08:39:47;;;;;;;;;;;;;;;9.89;82.48;99600.69;106378;1254;70529;-89
2024/02/06 08:42:27;;;;;;;;;;;;;;;9.94;83.15;99599.47;106631;1258;75062;-89
2024/02/06 08:45:01;;;;;;;;;;;;;;;10.03;83.01;99594.91;106496;1254;61247;-92
2024/02/06 08:47:35;;;;;;;;;;;;;;;10.23;82.90;99592.80;106486;1266;61327;-88
2024/02/06 08:50:15;;;;;;;;;;;;;;;10.48;80.22;99599.63;106448;1251;73978;-92
2024/02/06 08:52:55;;;;;;;;;;;;;;;10.52;80.12;99600.75;106509;1254;67088;-89
2024/02/06 08:55:29;;;;;;;;;;;;;;;10.47;80.16;99602.04;106870;1254;75221;-92
2024/02/06 08:58:03;;;;;;;;;;;;;;;10.67;79.22;99601.04;106466;1260;61456;-88
2024/02/06 09:00:43;;;;;;;;;;;;;;;10.59;78.43;99599.65;106613;1255;61204;-89
2024/02/06 09:03:23;;;;;;;;;;;;;;;10.79;77.64;99599.50;106650;1254;75851;-88
2024/02/06 09:05:57;;;;;;;;;;;;;;;10.86;75.34;99601.58;106597;1257;71107;-89
2024/02/06 09:08:33;;;;;;;;;;;;;;;10.60;76.41;99604.44;106451;1254;72844;-89
2024/02/06 09:11:13;;;;;;;;;;;;;;;10.60;76.31;99602.64;106544;1253;61546;-92
2024/02/06 09:13:54;;;;;;;;;;;;;;;10.79;76.31;99594.32;106608;1258;61395;-91
2024/02/06 09:16:28;;;;;;;;;;;;;;;10.68;76.73;99591.29;106539;1254;75554;-90
2024/02/06 09:19:02;;;;;;;;;;;;;;;10.74;76.98;99587.19;106704;1257;69736;-90
2024/02/06 09:21:42;;;;;;;;;;;;;;;10.69;76.94;99584.44;106805;1253;72060;-88
2024/02/06 09:24:22;;;;;;;;;;;;;;;10.83;76.72;99581.61;106428;1254;61343;-89
2024/02/06 09:26:56;;;;;;;;;;;;;;;10.91;75.79;99578.30;106347;1257;60440;-88
2024/02/06 09:29:30;;;;;;;;;;;;;;;10.88;77.20;99579.55;106626;1254;76673;-87
2024/02/06 09:32:10;;;;;;;;;;;;;;;10.83;78.92;99577.37;106565;1258;71124;-87
2024/02/06 09:34:49;;;;;;;;;;;;;;;10.80;79.13;99569.75;106587;1253;73499;-87
2024/02/06 09:37:17;;;;;;;;;;;;;;;10.83;77.88;99569.70;106434;1254;61217;-88
2024/02/06 09:39:57;;;;;;;;;;;;;;;10.80;79.51;99573.20;107330;1255;61260;-89
2024/02/06 09:42:37;;;;;;;;;;;;;;;10.88;81.16;99577.10;106679;1251;74688;-88
2024/02/06 09:45:17;;;;;;;;;;;;;;;10.97;81.62;99576.16;106481;1254;70607;-88
2024/02/06 09:47:45;;;;;;;;;;;;;;;11.09;82.15;99575.88;106677;1257;74228;-87
2024/02/06 09:50:19;;;;;;;;;;;;;;;10.99;83.49;99572.84;106646;1255;61688;-88
2024/02/06 09:52:53;;;;;;;;;;;;;;;11.07;84.39;99566.88;106847;1254;62016;-89
2024/02/06 09:55:27;;;;;;;;;;;;;;;11.10;84.25;99564.54;106428;1254;76551;-87
2024/02/06 09:57:55;;;;;;;;;;;;;;;10.81;86.48;99565.98;106514;1254;69438;-87
2024/02/06 10:00:29;;;;;;;;;;;;;;;10.75;86.67;99566.23;106459;1254;72747;-87
2024/02/06 10:03:13;;;;;;;;;;;;;;;10.86;84.63;99567.80;106468;1254;61635;-87
2024/02/06 10:05:49;;;;;;;;;;;;;;;10.87;84.61;99561.48;106367;1253;62070;-88
2024/02/06 10:08:17;;;;;;;;;;;;;;;11.03;84.62;99556.64;106700;1254;77777;-87
